Time;durP1;ratioP1;P1;durP2;ratioP2;P2;SDS_P1;SDS_P2;PMS_P1;PMS_P2;Temp;Humidity;BMP_temperature;BMP_pressure;BME280_temperature;BME280_humidity;BME280_pressure;Samples;Min_cycle;Max_cycle;Signal;HPM_P1;HPM_P2
2022/05/31 00:01:44;;;;;;;1.88;1.00;;;22.50;44.50;;;;;;5054766;28;20047;-59
2022/05/31 00:04:10;;;;;;;1.45;0.90;;;22.50;44.60;;;;;;5053926;28;20032;-59
2022/05/31 00:06:35;;;;;;;1.95;1.02;;;22.50;44.50;;;;;;5053691;28;20028;-63
2022/05/31 00:09:01;;;;;;;1.60;0.93;;;22.50;44.50;;;;;;5054940;28;20077;-61
2022/05/31 00:11:27;;;;;;;1.60;0.80;;;22.50;44.60;;;;;;5056265;28;20039;-61
2022/05/31 00:13:52;;;;;;;1.63;0.88;;;22.40;44.50;;;;;;5054348;28;20049;-59
2022/05/31 00:16:18;;;;;;;2.10;0.90;;;22.50;44.50;;;;;;5055578;28;20039;-58
2022/05/31 00:18:43;;;;;;;1.33;0.70;;;22.40;44.50;;;;;;5055823;28;20103;-65
2022/05/31 00:21:09;;;;;;;1.50;0.80;;;22.40;44.50;;;;;;5053833;28;20218;-58
2022/05/31 00:23:37;;;;;;;1.67;0.80;;;22.50;44.60;;;;;;5055034;28;20036;-61
2022/05/31 00:26:03;;;;;;;1.75;0.98;;;22.50;44.60;;;;;;5054021;28;20028;-60
2022/05/31 00:28:28;;;;;;;1.45;0.88;;;22.40;44.50;;;;;;5058588;28;20586;-59
2022/05/31 00:30:54;;;;;;;1.30;0.90;;;22.40;44.50;;;;;;5056805;28;20029;-58
2022/05/31 00:33:20;;;;;;;1.55;0.98;;;22.40;44.50;;;;;;5057311;28;20039;-62
2022/05/31 00:35:48;;;;;;;2.33;0.90;;;22.40;44.50;;;;;;5056423;28;20060;-59
2022/05/31 00:38:15;;;;;;;1.10;0.80;;;22.40;44.50;;;;;;5057043;28;20036;-56
2022/05/31 00:40:41;;;;;;;0.85;0.80;;;22.40;44.50;;;;;;5057058;28;20209;-58
2022/05/31 00:43:14;;;;;;;2.33;1.10;;;22.40;44.50;;;;;;5058261;28;20211;-62
2022/05/31 00:45:50;;;;;;;0.82;0.68;;;22.40;44.60;;;;;;5058717;28;20445;-58
2022/05/31 00:48:26;;;;;;;1.88;0.80;;;22.40;44.60;;;;;;5057662;28;20120;-65
2022/05/31 00:51:08;;;;;;;1.42;0.90;;;22.40;44.50;;;;;;5056882;28;20024;-63
2022/05/31 00:53:42;;;;;;;1.55;0.88;;;22.40;44.50;;;;;;5054609;28;20514;-60
2022/05/31 00:56:14;;;;;;;1.95;0.90;;;22.40;44.50;;;;;;5056915;28;20036;-58
2022/05/31 00:58:46;;;;;;;1.55;0.80;;;22.40;44.50;;;;;;5059050;28;20480;-58
2022/05/31 01:01:15;;;;;;;2.10;0.88;;;22.40;44.60;;;;;;5056141;28;20453;-59
2022/05/31 01:03:43;;;;;;;1.52;0.80;;;22.40;44.60;;;;;;5054855;28;20036;-63
2022/05/31 01:06:12;;;;;;;1.40;0.80;;;22.40;44.50;;;;;;5055367;28;20108;-58
2022/05/31 01:08:47;;;;;;;1.20;0.73;;;22.40;44.50;;;;;;5057013;28;20024;-62
2022/05/31 01:11:16;;;;;;;1.42;0.80;;;22.40;44.60;;;;;;5056825;28;20016;-63
2022/05/31 01:13:42;;;;;;;;;;;22.40;44.50;;;;;;5058690;28;20424;-61
2022/05/31 01:16:11;;;;;;;1.58;0.80;;;22.40;44.60;;;;;;5057219;28;19927;-58
2022/05/31 01:18:38;;;;;;;1.20;0.73;;;22.30;44.50;;;;;;5058530;28;20452;-61
2022/05/31 01:21:04;;;;;;;1.33;0.80;;;22.40;44.50;;;;;;5054692;28;20140;-60
2022/05/31 01:23:36;;;;;;;1.83;0.80;;;22.30;44.50;;;;;;5057041;28;20050;-58
2022/05/31 01:26:29;;;;;;;1.75;0.90;;;22.40;44.60;;;;;;5056927;28;20136;-62
2022/05/31 01:29:13;;;;;;;1.75;0.80;;;22.40;44.60;;;;;;5021183;28;20068;-63
2022/05/31 01:31:58;;;;;;;1.42;0.90;;;22.30;44.50;;;;;;5057910;28;20044;-63
2022/05/31 01:34:28;;;;;;;1.20;0.80;;;22.30;44.50;;;;;;5057334;28;20160;-64
2022/05/31 01:36:56;;;;;;;1.20;0.80;;;22.30;44.50;;;;;;5053640;28;20028;-58
2022/05/31 01:39:33;;;;;;;1.83;0.90;;;22.30;44.50;;;;;;5057577;28;20953;-58
2022/05/31 01:42:04;;;;;;;1.92;0.93;;;22.30;44.50;;;;;;5057106;28;20106;-58
2022/05/31 01:44:33;;;;;;;1.15;0.70;;;22.30;44.50;;;;;;5058408;28;20523;-64
2022/05/31 01:47:01;;;;;;;0.77;0.70;;;22.30;44.50;;;;;;5056556;28;20096;-58
2022/05/31 01:49:37;;;;;;;1.75;0.90;;;22.30;44.50;;;;;;5057234;28;20557;-62
2022/05/31 01:52:03;;;;;;;1.35;0.90;;;22.30;44.60;;;;;;5056196;28;20067;-58
2022/05/31 01:54:30;;;;;;;1.70;0.90;;;22.30;44.50;;;;;;5055586;28;20044;-60
2022/05/31 01:57:00;;;;;;;1.63;0.85;;;22.30;44.60;;;;;;5056623;28;20036;-65
2022/05/31 01:59:29;;;;;;;1.88;0.80;;;22.30;44.60;;;;;;5056770;28;20067;-61
2022/05/31 02:01:56;;;;;;;1.70;1.00;;;22.30;44.60;;;;;;5056373;28;20041;-59
2022/05/31 02:04:21;;;;;;;1.30;0.80;;;22.30;44.60;;;;;;5057917;28;20035;-60
2022/05/31 02:07:10;;;;;;;1.17;0.80;;;22.30;44.60;;;;;;5054700;28;20017;-57
2022/05/31 02:09:32;;;;;;;1.17;0.80;;;22.30;44.60;;;;;;5054808;28;20543;-60
2022/05/31 02:11:58;;;;;;;1.40;0.90;;;22.30;44.60;;;;;;5056232;28;20060;-60
2022/05/31 02:14:24;;;;;;;1.17;0.70;;;22.30;44.60;;;;;;5055961;28;20028;-61
2022/05/31 02:16:50;;;;;;;1.10;0.80;;;22.20;44.50;;;;;;5057094;28;20029;-64
2022/05/31 02:19:18;;;;;;;1.88;0.88;;;22.20;44.60;;;;;;5057556;28;20032;-62
2022/05/31 02:21:43;;;;;;;1.55;0.80;;;22.30;44.60;;;;;;5054224;28;20040;-60
2022/05/31 02:24:12;;;;;;;1.80;0.88;;;22.20;44.50;;;;;;5055451;28;20407;-62
2022/05/31 02:26:41;;;;;;;1.88;0.85;;;22.30;44.60;;;;;;5056374;28;20350;-57
2022/05/31 02:29:09;;;;;;;1.15;0.75;;;22.20;44.50;;;;;;5055668;28;20230;-59
2022/05/31 02:31:35;;;;;;;1.40;0.85;;;22.20;44.50;;;;;;5054807;28;20036;-63
2022/05/31 02:34:00;;;;;;;1.48;0.80;;;22.30;44.60;;;;;;5055485;28;20056;-61
2022/05/31 02:36:26;;;;;;;1.02;0.65;;;22.20;44.60;;;;;;5054891;28;20150;-62
2022/05/31 02:38:52;;;;;;;1.42;0.88;;;22.20;44.60;;;;;;5054872;28;20027;-61
2022/05/31 02:41:18;;;;;;;1.52;0.90;;;22.20;44.60;;;;;;5056073;28;20260;-61
2022/05/31 02:43:43;;;;;;;1.13;0.80;;;22.20;44.60;;;;;;5056595;28;20054;-62
2022/05/31 02:46:09;;;;;;;1.60;0.80;;;22.20;44.60;;;;;;5056852;28;20044;-65
2022/05/31 02:48:35;;;;;;;1.25;0.85;;;22.20;44.60;;;;;;5056088;28;20037;-63
2022/05/31 02:51:00;;;;;;;1.02;0.70;;;22.20;44.60;;;;;;5054227;28;20463;-62
2022/05/31 02:53:26;;;;;;;1.05;0.70;;;22.20;44.60;;;;;;5056222;28;20078;-59
2022/05/31 02:55:52;;;;;;;0.98;0.68;;;22.20;44.60;;;;;;5056325;28;20031;-61
2022/05/31 02:58:17;;;;;;;1.20;0.73;;;22.10;44.50;;;;;;5057235;28;20037;-63
2022/05/31 03:00:43;;;;;;;0.98;0.70;;;22.20;44.60;;;;;;5056805;28;20203;-61
2022/05/31 03:03:08;;;;;;;1.40;0.85;;;22.10;44.60;;;;;;5056039;28;20516;-63
2022/05/31 03:05:34;;;;;;;1.35;0.80;;;22.20;44.60;;;;;;5054715;28;20111;-58
2022/05/31 03:08:00;;;;;;;1.30;0.75;;;22.20;44.60;;;;;;5052982;28;20032;-63
2022/05/31 03:10:29;;;;;;;0.73;0.60;;;22.20;44.60;;;;;;5057047;28;20477;-60
2022/05/31 03:12:55;;;;;;;0.80;0.60;;;22.20;44.60;;;;;;5055654;28;20036;-58
2022/05/31 03:15:24;;;;;;;1.70;0.85;;;22.10;44.60;;;;;;5057021;28;20040;-61
2022/05/31 03:18:05;;;;;;;0.93;0.70;;;22.10;44.60;;;;;;5054610;28;20178;-63
2022/05/31 03:20:44;;;;;;;1.38;0.80;;;22.20;44.60;;;;;;5056398;28;20269;-60
2022/05/31 03:23:25;;;;;;;1.73;0.93;;;22.20;44.70;;;;;;5055030;28;20039;-62
2022/05/31 03:25:53;;;;;;;1.15;0.70;;;22.10;44.60;;;;;;5054829;28;20027;-59
2022/05/31 03:28:21;;;;;;;1.50;0.85;;;22.10;44.60;;;;;;5056772;28;20396;-58
2022/05/31 03:30:47;;;;;;;1.15;0.70;;;22.20;44.70;;;;;;5055512;28;20040;-63
2022/05/31 03:33:13;;;;;;;1.35;0.80;;;22.10;44.60;;;;;;5055810;28;20098;-58
2022/05/31 03:35:40;;;;;;;1.70;0.80;;;22.10;44.60;;;;;;5055119;28;20052;-59
2022/05/31 03:38:06;;;;;;;1.02;0.70;;;22.10;44.60;;;;;;5053155;28;20040;-58
2022/05/31 03:43:16;;;;;;;0.75;0.65;;;22.10;45.20;;;;;;5054798;28;20036;-58
2022/05/31 03:45:43;;;;;;;0.98;0.70;;;22.10;44.60;;;;;;5057598;28;20024;-60
2022/05/31 03:48:11;;;;;;;1.50;0.82;;;22.10;44.70;;;;;;5056300;28;20120;-63
2022/05/31 03:50:38;;;;;;;0.88;0.60;;;22.10;44.60;;;;;;5055812;28;20074;-59
2022/05/31 03:53:05;;;;;;;1.05;0.73;;;22.10;44.70;;;;;;5052872;28;20032;-60
2022/05/31 03:55:30;;;;;;;1.58;0.82;;;22.10;44.70;;;;;;5055450;28;20036;-62
2022/05/31 03:57:56;;;;;;;0.90;0.70;;;22.00;44.60;;;;;;5054816;28;20047;-63
2022/05/31 04:00:22;;;;;;;1.33;0.60;;;22.00;44.60;;;;;;5055857;28;20389;-61
2022/05/31 04:02:48;;;;;;;1.48;0.90;;;22.00;44.60;;;;;;5058879;28;20108;-62
2022/05/31 04:05:14;;;;;;;0.90;0.68;;;22.00;44.60;;;;;;5059402;28;20094;-64
2022/05/31 04:07:39;;;;;;;0.90;0.77;;;22.00;44.60;;;;;;5056333;28;20021;-61
2022/05/31 04:10:07;;;;;;;1.48;0.77;;;22.00;44.60;;;;;;5059253;28;20455;-63
2022/05/31 04:12:37;;;;;;;1.52;1.05;;;22.00;44.60;;;;;;5057738;28;20155;-61
2022/05/31 04:15:04;;;;;;;1.42;0.80;;;22.00;44.60;;;;;;5060021;28;20067;-58
2022/05/31 04:17:30;;;;;;;1.23;0.75;;;22.00;44.60;;;;;;5058997;28;20039;-57
2022/05/31 04:19:55;;;;;;;1.02;0.60;;;22.00;44.60;;;;;;5060487;28;20360;-62
2022/05/31 04:22:21;;;;;;;1.27;0.77;;;22.00;44.60;;;;;;5055786;28;20060;-58
2022/05/31 04:24:46;;;;;;;1.17;0.75;;;22.00;44.60;;;;;;5057934;28;20028;-59
2022/05/31 04:27:16;;;;;;;0.80;0.70;;;22.00;44.60;;;;;;5059833;28;20067;-63
2022/05/31 04:29:42;;;;;;;1.30;0.80;;;22.00;44.60;;;;;;5058562;28;20499;-63
2022/05/31 04:32:08;;;;;;;1.15;0.82;;;22.00;44.60;;;;;;5056958;28;20037;-63
2022/05/31 04:34:34;;;;;;;1.50;0.70;;;22.00;44.70;;;;;;5059603;28;20588;-57
2022/05/31 04:37:00;;;;;;;1.20;0.70;;;22.00;44.70;;;;;;5057696;28;20064;-60
2022/05/31 04:39:26;;;;;;;0.90;0.70;;;22.00;44.70;;;;;;5058594;28;20476;-62
2022/05/31 04:41:51;;;;;;;1.15;0.70;;;22.00;44.60;;;;;;5059281;28;20060;-63
2022/05/31 04:44:18;;;;;;;1.10;0.70;;;22.00;44.70;;;;;;5058536;28;20480;-59
2022/05/31 04:46:44;;;;;;;1.15;0.70;;;22.00;44.70;;;;;;5057343;28;20765;-60
2022/05/31 04:49:09;;;;;;;1.75;0.88;;;22.00;44.70;;;;;;5058098;28;20108;-58
2022/05/31 04:51:35;;;;;;;1.25;0.80;;;22.00;44.70;;;;;;5056472;28;20393;-56
2022/05/31 04:54:02;;;;;;;0.82;0.60;;;22.00;44.70;;;;;;5056244;28;20039;-59
2022/05/31 04:56:29;;;;;;;0.98;0.70;;;21.90;45.20;;;;;;5057460;28;20134;-58
2022/05/31 04:58:54;;;;;;;1.25;0.77;;;21.90;44.60;;;;;;5058658;28;20021;-57
2022/05/31 05:01:21;;;;;;;1.13;0.85;;;21.90;44.60;;;;;;5057341;28;20054;-60
2022/05/31 05:03:48;;;;;;;0.98;0.73;;;22.00;44.70;;;;;;5058360;28;20037;-62
2022/05/31 05:06:17;;;;;;;0.75;0.60;;;21.90;44.60;;;;;;5055138;28;20037;-60
2022/05/31 05:08:42;;;;;;;1.23;0.80;;;21.90;44.60;;;;;;5056949;28;20059;-63
2022/05/31 05:11:11;;;;;;;1.15;0.75;;;21.90;44.70;;;;;;5058247;28;20102;-57
2022/05/31 05:13:38;;;;;;;0.90;0.70;;;21.90;44.70;;;;;;5058277;28;20028;-60
2022/05/31 05:16:04;;;;;;;0.70;0.60;;;21.90;44.60;;;;;;5057939;28;20560;-62
2022/05/31 05:18:30;;;;;;;0.75;0.60;;;21.90;44.70;;;;;;5058733;28;20440;-58
2022/05/31 05:20:56;;;;;;;1.23;0.70;;;21.90;44.70;;;;;;5056347;28;20025;-59
2022/05/31 05:23:22;;;;;;;0.77;0.60;;;21.90;44.70;;;;;;5055011;28;20111;-60
2022/05/31 05:25:49;;;;;;;1.20;0.60;;;21.90;44.70;;;;;;5057619;28;20033;-63
2022/05/31 05:30:58;;;;;;;1.30;0.80;;;21.90;44.70;;;;;;5057754;28;20105;-60
2022/05/31 05:33:24;;;;;;;1.00;0.60;;;21.90;44.70;;;;;;5058360;28;20410;-60
2022/05/31 05:35:49;;;;;;;0.85;0.70;;;21.90;44.70;;;;;;5056872;28;20108;-62
2022/05/31 05:38:15;;;;;;;1.73;0.70;;;21.90;44.70;;;;;;5056743;28;20082;-62
2022/05/31 05:40:41;;;;;;;1.10;0.73;;;21.90;44.70;;;;;;5057188;28;20109;-59
2022/05/31 05:43:08;;;;;;;1.17;0.80;;;21.90;44.70;;;;;;5057499;28;20028;-59
2022/05/31 05:45:34;;;;;;;1.42;0.70;;;21.90;44.70;;;;;;5059500;28;20032;-62
2022/05/31 05:48:00;;;;;;;3.28;1.08;;;21.90;44.70;;;;;;5057312;28;20021;-64
2022/05/31 05:50:26;;;;;;;1.60;0.80;;;21.80;44.70;;;;;;5055589;28;20040;-61
2022/05/31 05:52:56;;;;;;;2.00;0.80;;;21.90;44.70;;;;;;5054274;28;20048;-59
2022/05/31 05:55:21;;;;;;;1.33;0.80;;;21.90;44.80;;;;;;5054600;28;20040;-61
2022/05/31 05:57:47;;;;;;;1.05;0.68;;;21.90;44.80;;;;;;5056717;28;20389;-59
2022/05/31 06:00:13;;;;;;;1.23;0.70;;;21.80;44.70;;;;;;5057286;28;20028;-60
2022/05/31 06:02:42;;;;;;;1.48;0.70;;;21.80;44.70;;;;;;5054915;28;20040;-58
2022/05/31 06:05:16;;;;;;;1.75;0.85;;;21.80;44.80;;;;;;5056986;28;20036;-63
2022/05/31 06:07:52;;;;;;;1.95;0.88;;;21.80;45.30;;;;;;5054766;28;20855;-57
2022/05/31 06:10:24;;;;;;;2.15;0.90;;;21.80;44.70;;;;;;5056999;28;20055;-58
2022/05/31 06:13:01;;;;;;;2.20;0.80;;;21.80;44.70;;;;;;5057178;28;20025;-63
2022/05/31 06:15:35;;;;;;;1.05;0.77;;;21.80;44.80;;;;;;5057374;28;20124;-60
2022/05/31 06:18:10;;;;;;;2.63;0.90;;;21.80;44.70;;;;;;5056427;28;20033;-57
2022/05/31 06:20:35;;;;;;;1.45;0.80;;;21.80;44.80;;;;;;5056519;28;20036;-64
2022/05/31 06:23:01;;;;;;;1.13;0.80;;;21.80;44.80;;;;;;5053219;28;20032;-59
2022/05/31 06:25:27;;;;;;;1.77;0.98;;;21.80;44.80;;;;;;5055547;28;20424;-58
2022/05/31 06:27:52;;;;;;;2.10;0.90;;;21.80;44.80;;;;;;5056297;28;20055;-61
2022/05/31 06:30:18;;;;;;;1.42;0.80;;;21.80;44.80;;;;;;5056383;28;20035;-59
2022/05/31 06:32:44;;;;;;;1.55;0.90;;;21.80;44.80;;;;;;5056143;28;20082;-61
2022/05/31 06:35:10;;;;;;;1.20;0.80;;;21.80;44.80;;;;;;5055572;28;20033;-63
2022/05/31 06:37:36;;;;;;;1.88;0.88;;;21.80;44.80;;;;;;5054466;28;20492;-58
2022/05/31 06:40:01;;;;;;;1.45;0.90;;;21.80;44.80;;;;;;5056328;28;20032;-62
2022/05/31 06:42:30;;;;;;;1.38;1.00;;;21.80;44.80;;;;;;5057048;28;20028;-63
2022/05/31 06:44:56;;;;;;;1.95;1.00;;;21.80;44.80;;;;;;5058538;28;20035;-63
2022/05/31 06:47:22;;;;;;;1.58;0.90;;;21.80;44.80;;;;;;5056321;28;20037;-60
2022/05/31 06:49:48;;;;;;;1.58;0.82;;;21.80;44.80;;;;;;5056478;28;20094;-62
2022/05/31 06:57:44;;;;;;;3.00;0.90;;;21.80;44.80;;;;;;5057424;28;20043;-59
2022/05/31 07:00:14;;;;;;;2.00;0.90;;;21.80;44.80;;;;;;5056866;28;20036;-64
2022/05/31 07:02:39;;;;;;;;;;;21.80;44.90;;;;;;5054599;28;20472;-59
2022/05/31 07:05:06;;;;;;;1.85;0.90;;;21.80;44.90;;;;;;5055868;28;19912;-58
2022/05/31 07:07:32;;;;;;;1.42;0.85;;;21.80;44.80;;;;;;5054832;28;20028;-59
2022/05/31 07:09:57;;;;;;;1.92;0.90;;;21.80;44.90;;;;;;5056248;28;20031;-61
2022/05/31 07:12:23;;;;;;;1.23;0.80;;;21.70;44.80;;;;;;5057514;28;20401;-59
2022/05/31 07:14:48;;;;;;;1.38;0.80;;;21.70;44.80;;;;;;5055864;28;20151;-57
2022/05/31 07:17:14;;;;;;;1.05;0.73;;;21.70;44.80;;;;;;5056520;28;20039;-57
2022/05/31 07:19:42;;;;;;;1.35;0.90;;;21.70;44.90;;;;;;5056991;28;20032;-62
2022/05/31 07:22:08;;;;;;;1.35;0.70;;;21.80;44.90;;;;;;5055480;28;20027;-58
2022/05/31 07:24:33;;;;;;;1.55;0.80;;;21.70;44.90;;;;;;5055168;28;20029;-57
2022/05/31 07:26:59;;;;;;;2.05;0.80;;;21.70;44.90;;;;;;5056956;28;20468;-57
2022/05/31 07:29:25;;;;;;;1.60;0.80;;;21.70;44.90;;;;;;5056097;28;20388;-59
2022/05/31 07:31:50;;;;;;;1.60;0.90;;;21.70;44.90;;;;;;5054867;28;20040;-63
2022/05/31 07:34:17;;;;;;;1.65;0.75;;;21.80;45.00;;;;;;5054865;28;20555;-60
2022/05/31 07:36:43;;;;;;;1.23;0.90;;;21.80;45.00;;;;;;5057002;28;20368;-58
2022/05/31 07:39:14;;;;;;;1.38;0.77;;;21.70;44.90;;;;;;5059907;28;20469;-63
2022/05/31 07:41:40;;;;;;;0.98;0.80;;;21.70;45.00;;;;;;5059668;28;20048;-58
2022/05/31 07:44:07;;;;;;;1.42;0.90;;;21.70;44.90;;;;;;5061364;28;20048;-58
2022/05/31 07:46:33;;;;;;;1.20;0.88;;;21.70;45.00;;;;;;5059669;28;20061;-60
2022/05/31 07:48:59;;;;;;;1.25;0.80;;;21.70;45.00;;;;;;5060150;28;20036;-58
2022/05/31 07:51:26;;;;;;;1.45;0.90;;;21.70;45.00;;;;;;5056938;28;20039;-57
2022/05/31 07:53:52;;;;;;;1.83;0.90;;;21.80;45.00;;;;;;5058936;28;20173;-58
2022/05/31 07:56:18;;;;;;;1.45;0.85;;;21.70;45.00;;;;;;5059466;28;20032;-62
2022/05/31 07:58:46;;;;;;;1.67;0.80;;;21.70;45.50;;;;;;5060581;28;20036;-63
2022/05/31 08:01:14;;;;;;;1.02;0.70;;;21.70;45.50;;;;;;5059179;28;20766;-60
2022/05/31 08:03:40;;;;;;;0.95;0.70;;;21.70;45.00;;;;;;5059616;28;20032;-59
2022/05/31 08:06:23;;;;;;;1.20;0.80;;;21.70;45.00;;;;;;5058149;28;20441;-63
2022/05/31 08:08:49;;;;;;;1.50;0.95;;;21.70;45.00;;;;;;5060314;28;20028;-58
2022/05/31 08:11:18;;;;;;;1.02;0.70;;;21.70;45.00;;;;;;5057663;28;20033;-58
2022/05/31 08:13:45;;;;;;;0.88;0.70;;;21.70;45.00;;;;;;5059845;28;20082;-61
2022/05/31 08:16:13;;;;;;;1.30;0.70;;;21.70;45.10;;;;;;5059858;28;20083;-62
2022/05/31 08:18:39;;;;;;;1.02;0.68;;;21.70;45.10;;;;;;5060351;28;20044;-58
2022/05/31 08:21:08;;;;;;;1.10;0.80;;;21.70;45.10;;;;;;5057914;28;20111;-61
2022/05/31 08:23:35;;;;;;;1.00;0.60;;;21.70;45.10;;;;;;5058739;28;20021;-58
2022/05/31 08:26:01;;;;;;;1.55;0.80;;;21.70;45.10;;;;;;5059297;28;20032;-57
2022/05/31 08:28:27;;;;;;;1.23;0.80;;;21.70;45.10;;;;;;5057449;28;20044;-59
2022/05/31 08:31:00;;;;;;;1.27;0.80;;;21.70;45.20;;;;;;5058630;28;20037;-60
2022/05/31 08:33:26;;;;;;;1.40;0.65;;;21.70;45.20;;;;;;5057795;28;20082;-58
2022/05/31 08:35:52;;;;;;;1.23;0.80;;;21.70;45.20;;;;;;5057535;28;20248;-60
2022/05/31 08:38:18;;;;;;;1.15;0.73;;;21.70;45.20;;;;;;5058183;28;20090;-63
2022/05/31 08:40:51;;;;;;;0.98;0.80;;;21.70;45.20;;;;;;5059216;28;20085;-59
2022/05/31 08:43:22;;;;;;;1.17;0.70;;;21.70;45.20;;;;;;5056116;28;20095;-57
2022/05/31 08:45:55;;;;;;;0.73;0.68;;;21.70;45.20;;;;;;5060284;28;20120;-64
2022/05/31 08:48:23;;;;;;;0.75;0.70;;;21.70;45.30;;;;;;5056793;28;20020;-56
2022/05/31 08:56:57;;;;;;;0.88;0.63;;;21.70;45.30;;;;;;5056573;28;20070;-61
2022/05/31 08:59:25;;;;;;;1.10;0.80;;;21.70;45.30;;;;;;5059565;28;20132;-57
2022/05/31 09:01:54;;;;;;;0.77;0.70;;;21.60;45.20;;;;;;5059167;28;20056;-64
2022/05/31 09:04:26;;;;;;;0.88;0.60;;;21.70;45.30;;;;;;5059419;28;20036;-59
2022/05/31 09:06:58;;;;;;;0.85;0.70;;;21.70;45.30;;;;;;5055690;28;20130;-63
2022/05/31 09:09:26;;;;;;;0.93;0.70;;;21.70;45.30;;;;;;5057588;28;20024;-63
2022/05/31 09:12:04;;;;;;;1.13;0.70;;;21.70;45.30;;;;;;5058245;28;20341;-61
2022/05/31 09:14:52;;;;;;;0.73;0.65;;;21.70;45.30;;;;;;5058597;28;20040;-58
2022/05/31 09:17:39;;;;;;;0.68;0.65;;;21.70;45.30;;;;;;5056989;28;21003;-61
2022/05/31 09:20:14;;;;;;;1.00;0.70;;;21.70;45.30;;;;;;5059838;28;20035;-58
2022/05/31 09:22:44;;;;;;;0.80;0.60;;;21.70;45.30;;;;;;5056189;28;20043;-58
2022/05/31 09:25:10;;;;;;;1.20;0.70;;;21.70;45.30;;;;;;5056119;28;20452;-63
2022/05/31 09:27:44;;;;;;;1.05;0.70;;;21.70;45.20;;;;;;5059117;28;20082;-64
2022/05/31 09:30:31;;;;;;;1.10;0.70;;;21.70;45.20;;;;;;5058486;28;20054;-58
2022/05/31 09:33:17;;;;;;;1.05;0.70;;;21.70;45.20;;;;;;5057459;28;20037;-61
2022/05/31 09:36:06;;;;;;;1.05;0.60;;;21.70;45.20;;;;;;5058235;28;20036;-60
2022/05/31 09:39:06;;;;;;;1.00;0.80;;;21.70;45.20;;;;;;5055816;28;20105;-58
2022/05/31 09:41:58;;;;;;;1.17;0.70;;;21.70;45.20;;;;;;5058595;28;20037;-62
2022/05/31 09:44:31;;;;;;;0.60;0.52;;;21.70;45.30;;;;;;5058256;28;20033;-63
2022/05/31 09:47:16;;;;;;;1.13;0.70;;;21.70;45.20;;;;;;5057415;28;20032;-61
2022/05/31 09:49:50;;;;;;;0.90;0.70;;;21.70;45.30;;;;;;5058098;28;20460;-60
2022/05/31 09:52:42;;;;;;;1.05;0.80;;;21.70;45.20;;;;;;5056329;28;20094;-59
2022/05/31 09:58:26;;;;;;;0.57;0.50;;;21.70;45.20;;;;;;5057248;28;20118;-63
2022/05/31 10:01:04;;;;;;;0.68;0.63;;;21.70;45.20;;;;;;5058977;28;20154;-57
2022/05/31 10:03:37;;;;;;;0.88;0.60;;;21.70;45.70;;;;;;5057336;28;20444;-60
2022/05/31 10:06:10;;;;;;;0.93;0.68;;;21.70;45.20;;;;;;5053784;28;20139;-62
2022/05/31 10:08:37;;;;;;;0.60;0.60;;;21.80;45.30;;;;;;5055843;28;20143;-63
2022/05/31 10:11:13;;;;;;;0.98;0.70;;;21.80;45.30;;;;;;5056859;28;20100;-62
2022/05/31 10:13:53;;;;;;;0.50;0.50;;;21.80;45.30;;;;;;5053976;28;20039;-60
2022/05/31 10:16:28;;;;;;;0.70;0.55;;;21.80;45.30;;;;;;5056965;28;20039;-63
2022/05/31 10:19:08;;;;;;;0.77;0.60;;;21.80;45.30;;;;;;5055356;28;20032;-58
2022/05/31 10:21:40;;;;;;;0.70;0.60;;;21.80;45.30;;;;;;5054556;28;20456;-59
2022/05/31 10:24:21;;;;;;;0.60;0.50;;;21.80;45.30;;;;;;5054144;28;20047;-61
2022/05/31 10:27:05;;;;;;;0.90;0.60;;;21.80;45.20;;;;;;5057002;28;20115;-63
2022/05/31 10:29:52;;;;;;;0.73;0.60;;;21.80;45.20;;;;;;5056274;28;20043;-61
2022/05/31 10:32:23;;;;;;;0.88;0.60;;;21.80;45.20;;;;;;5053566;28;20042;-60
2022/05/31 10:34:49;;;;;;;0.70;0.50;;;21.80;45.20;;;;;;5056924;28;20090;-61
2022/05/31 10:37:28;;;;;;;0.70;0.55;;;21.80;45.20;;;;;;5053897;28;20464;-61
2022/05/31 10:40:06;;;;;;;1.17;0.70;;;21.80;45.20;;;;;;5055141;28;20386;-63
2022/05/31 10:42:36;;;;;;;0.77;0.60;;;21.80;45.20;;;;;;5054596;28;20045;-58
2022/05/31 10:45:05;;;;;;;0.80;0.60;;;21.80;45.20;;;;;;5057416;28;20034;-60
2022/05/31 10:47:31;;;;;;;0.70;0.50;;;21.80;45.20;;;;;;5039935;28;20083;-57
2022/05/31 10:49:56;;;;;;;0.50;0.50;;;21.80;45.20;;;;;;5058163;28;20105;-58
2022/05/31 10:52:35;;;;;;;0.68;0.52;;;21.80;45.20;;;;;;5053464;28;20028;-61
2022/05/31 10:55:25;;;;;;;0.88;0.70;;;21.80;45.20;;;;;;5057009;28;20044;-63
2022/05/31 10:58:03;;;;;;;;;;;21.80;45.20;;;;;;5056696;28;20031;-59
2022/05/31 11:00:49;;;;;;;0.50;0.50;;;21.80;45.20;;;;;;5056199;28;19923;-59
2022/05/31 11:03:39;;;;;;;0.50;0.50;;;21.80;45.20;;;;;;5056588;28;20021;-58
2022/05/31 11:06:28;;;;;;;0.52;0.52;;;21.80;45.20;;;;;;5054565;28;20485;-60
2022/05/31 11:12:49;;;;;;;1.85;0.60;;;21.80;45.20;;;;;;5056251;28;20506;-61
2022/05/31 11:15:31;;;;;;;0.90;0.60;;;21.80;45.20;;;;;;5055387;28;20513;-58
2022/05/31 11:18:10;;;;;;;1.45;0.80;;;21.80;45.20;;;;;;5057049;28;20095;-60
2022/05/31 11:20:56;;;;;;;1.20;0.70;;;21.80;45.20;;;;;;5055578;28;20035;-62
2022/05/31 11:23:39;;;;;;;1.02;0.52;;;21.80;45.20;;;;;;5055496;28;20034;-60
2022/05/31 11:26:21;;;;;;;0.93;0.60;;;21.90;45.20;;;;;;5054544;28;20138;-62
2022/05/31 11:29:25;;;;;;;0.77;0.60;;;21.80;45.20;;;;;;5056752;28;20060;-64
2022/05/31 11:32:17;;;;;;;1.25;0.68;;;21.90;45.20;;;;;;5055674;28;20033;-62
2022/05/31 11:35:19;;;;;;;0.93;0.60;;;21.90;45.70;;;;;;5055974;28;20043;-60
2022/05/31 11:38:00;;;;;;;0.93;0.60;;;21.90;45.20;;;;;;5053330;28;20101;-61
2022/05/31 11:40:46;;;;;;;1.20;0.70;;;21.90;45.20;;;;;;5054941;28;20396;-64
2022/05/31 11:43:14;;;;;;;0.98;0.68;;;21.90;45.20;;;;;;5055611;28;20028;-61
2022/05/31 11:45:54;;;;;;;0.90;0.60;;;21.90;45.10;;;;;;5055517;28;20120;-62
2022/05/31 11:48:57;;;;;;;1.15;0.65;;;21.90;45.10;;;;;;5053918;28;20337;-59
2022/05/31 11:51:26;;;;;;;0.50;0.50;;;21.90;45.10;;;;;;5044935;28;20112;-59
2022/05/31 11:54:24;;;;;;;0.90;0.60;;;21.90;45.10;;;;;;5053338;28;20043;-61
2022/05/31 11:57:17;;;;;;;0.70;0.60;;;21.90;45.10;;;;;;5053477;28;20029;-59
2022/05/31 11:59:55;;;;;;;1.05;0.75;;;21.90;45.00;;;;;;5051535;28;20081;-62
2022/05/31 12:02:49;;;;;;;0.68;0.60;;;21.90;45.00;;;;;;5053213;28;20072;-58
2022/05/31 12:05:25;;;;;;;1.20;0.70;;;21.90;45.00;;;;;;5052382;28;20028;-62
2022/05/31 12:08:02;;;;;;;0.95;0.60;;;21.90;45.00;;;;;;5052642;28;20031;-63
2022/05/31 12:10:39;;;;;;;0.75;0.70;;;21.90;45.00;;;;;;5054301;28;20159;-59
2022/05/31 12:13:09;;;;;;;0.93;0.60;;;21.90;44.90;;;;;;5052147;28;20162;-60
2022/05/31 12:15:39;;;;;;;1.02;0.70;;;21.90;44.90;;;;;;5053106;28;20098;-64
2022/05/31 12:18:05;;;;;;;1.25;0.60;;;21.90;44.90;;;;;;5053224;28;20032;-59
2022/05/31 12:20:54;;;;;;;0.63;0.50;;;21.90;44.90;;;;;;5051580;28;20097;-64
2022/05/31 12:23:40;;;;;;;0.88;0.60;;;21.90;44.90;;;;;;5054092;28;20330;-60
2022/05/31 12:26:40;;;;;;;0.60;0.60;;;21.90;44.80;;;;;;5056940;28;20033;-59
2022/05/31 12:29:05;;;;;;;0.77;0.70;;;22.00;44.90;;;;;;5055868;28;20043;-59
2022/05/31 12:31:33;;;;;;;1.08;0.65;;;21.90;44.80;;;;;;5055739;28;20028;-60
2022/05/31 12:34:14;;;;;;;1.50;0.80;;;21.90;44.80;;;;;;5055067;28;20028;-62
2022/05/31 12:36:54;;;;;;;1.15;0.80;;;21.90;44.80;;;;;;5052870;28;20028;-64
2022/05/31 12:39:24;;;;;;;1.23;0.80;;;21.90;44.80;;;;;;5054509;28;20051;-60
2022/05/31 12:41:51;;;;;;;0.88;0.70;;;22.00;44.90;;;;;;5054128;28;20070;-63
2022/05/31 12:44:34;;;;;;;1.10;0.70;;;22.00;45.00;;;;;;5054142;28;20433;-60
2022/05/31 12:47:20;;;;;;;0.75;0.60;;;22.00;44.90;;;;;;5054116;28;20137;-59
2022/05/31 12:50:04;;;;;;;0.60;0.60;;;22.00;45.00;;;;;;5055573;28;20047;-64
2022/05/31 12:55:26;;;;;;;1.05;0.70;;;22.00;45.00;;;;;;5057852;28;20032;-59
2022/05/31 13:00:51;;;;;;;1.92;0.70;;;22.00;45.00;;;;;;5059726;28;20099;-60
2022/05/31 13:03:36;;;;;;;0.80;0.65;;;22.00;45.00;;;;;;5058977;28;20048;-60
2022/05/31 13:06:11;;;;;;;0.82;0.68;;;22.00;45.00;;;;;;5057068;28;20577;-61
2022/05/31 13:20:19;;;;;;;0.80;0.60;;;22.00;45.00;;;;;;5058182;28;20047;-57
2022/05/31 13:22:51;;;;;;;1.52;0.77;;;22.00;45.00;;;;;;5056658;28;20043;-62
2022/05/31 13:25:28;;;;;;;0.70;0.70;;;22.00;45.00;;;;;;5059171;28;20024;-58
2022/05/31 13:27:57;;;;;;;1.23;0.60;;;22.00;45.00;;;;;;5057368;28;20028;-58
2022/05/31 13:30:25;;;;;;;;;;;22.00;45.00;;;;;;5057631;28;20123;-63
2022/05/31 13:32:51;;;;;;;0.82;0.63;;;22.00;45.00;;;;;;5059054;28;19965;-62
2022/05/31 13:35:24;;;;;;;1.05;0.60;;;22.00;45.00;;;;;;5057811;28;20044;-58
2022/05/31 13:38:06;;;;;;;1.13;0.70;;;22.00;45.00;;;;;;5055884;28;20036;-64
2022/05/31 13:40:36;;;;;;;0.70;0.57;;;22.00;45.00;;;;;;5057859;28;20041;-64
2022/05/31 13:43:13;;;;;;;1.00;0.70;;;22.00;45.00;;;;;;5056898;28;20036;-60
2022/05/31 13:45:39;;;;;;;1.35;0.75;;;22.00;45.00;;;;;;5058178;28;20039;-62
2022/05/31 13:48:22;;;;;;;1.20;0.60;;;22.00;45.00;;;;;;5058933;28;20111;-58
2022/05/31 13:51:00;;;;;;;0.68;0.60;;;22.00;45.00;;;;;;5057299;28;20037;-63